sensor_id;sensor_type;location;lat;lon;timestamp;P1;durP1;ratioP1;P2;durP2;ratioP2
38513;SDS011;24282;48.400;10.808;2023-11-22T00:00:29;8.40;;;6.60;;
38513;SDS011;24282;48.400;10.808;2023-11-22T00:02:54;9.07;;;6.97;;
38513;SDS011;24282;48.400;10.808;2023-11-22T00:05:20;8.70;;;6.93;;
38513;SDS011;24282;48.400;10.808;2023-11-22T00:07:46;9.00;;;6.87;;
38513;SDS011;24282;48.400;10.808;2023-11-22T00:10:12;11.30;;;7.90;;
38513;SDS011;24282;48.400;10.808;2023-11-22T00:12:39;9.50;;;7.23;;
38513;SDS011;24282;48.400;10.808;2023-11-22T00:15:05;9.83;;;6.87;;
38513;SDS011;24282;48.400;10.808;2023-11-22T00:17:32;10.40;;;6.30;;
38513;SDS011;24282;48.400;10.808;2023-11-22T00:19:58;9.70;;;7.47;;
38513;SDS011;24282;48.400;10.808;2023-11-22T00:22:26;9.73;;;7.07;;
38513;SDS011;24282;48.400;10.808;2023-11-22T00:24:52;10.17;;;7.47;;
38513;SDS011;24282;48.400;10.808;2023-11-22T00:27:19;10.23;;;6.93;;
38513;SDS011;24282;48.400;10.808;2023-11-22T00:29:45;13.13;;;7.13;;
38513;SDS011;24282;48.400;10.808;2023-11-22T00:32:13;8.07;;;7.10;;
38513;SDS011;24282;48.400;10.808;2023-11-22T00:34:39;11.37;;;7.77;;
38513;SDS011;24282;48.400;10.808;2023-11-22T00:37:04;12.60;;;7.23;;
38513;SDS011;24282;48.400;10.808;2023-11-22T00:39:30;13.73;;;8.83;;
38513;SDS011;24282;48.400;10.808;2023-11-22T00:41:57;8.90;;;6.63;;
38513;SDS011;24282;48.400;10.808;2023-11-22T00:44:22;9.43;;;7.07;;
38513;SDS011;24282;48.400;10.808;2023-11-22T00:46:48;9.40;;;7.03;;
38513;SDS011;24282;48.400;10.808;2023-11-22T00:49:14;8.43;;;7.30;;
38513;SDS011;24282;48.400;10.808;2023-11-22T00:51:40;7.90;;;6.53;;
38513;SDS011;24282;48.400;10.808;2023-11-22T00:54:07;9.20;;;7.40;;
38513;SDS011;24282;48.400;10.808;2023-11-22T00:56:32;11.27;;;7.33;;
38513;SDS011;24282;48.400;10.808;2023-11-22T00:58:58;11.87;;;7.77;;
38513;SDS011;24282;48.400;10.808;2023-11-22T01:01:29;8.57;;;7.30;;
38513;SDS011;24282;48.400;10.808;2023-11-22T01:03:56;9.30;;;7.40;;
38513;SDS011;24282;48.400;10.808;2023-11-22T01:06:22;10.43;;;7.50;;
38513;SDS011;24282;48.400;10.808;2023-11-22T01:08:48;9.93;;;7.23;;
38513;SDS011;24282;48.400;10.808;2023-11-22T01:11:14;8.80;;;6.50;;
38513;SDS011;24282;48.400;10.808;2023-11-22T01:13:40;10.47;;;7.47;;
38513;SDS011;24282;48.400;10.808;2023-11-22T01:16:11;7.97;;;6.90;;
38513;SDS011;24282;48.400;10.808;2023-11-22T01:18:38;6.90;;;6.20;;
38513;SDS011;24282;48.400;10.808;2023-11-22T01:21:04;6.23;;;4.33;;
38513;SDS011;24282;48.400;10.808;2023-11-22T01:23:31;4.37;;;3.37;;
38513;SDS011;24282;48.400;10.808;2023-11-22T01:25:59;3.70;;;3.10;;
38513;SDS011;24282;48.400;10.808;2023-11-22T01:28:26;4.20;;;3.23;;
38513;SDS011;24282;48.400;10.808;2023-11-22T01:30:52;5.17;;;2.70;;
38513;SDS011;24282;48.400;10.808;2023-11-22T01:33:20;3.10;;;2.60;;
38513;SDS011;24282;48.400;10.808;2023-11-22T01:35:48;3.83;;;2.90;;
38513;SDS011;24282;48.400;10.808;2023-11-22T01:38:17;4.87;;;2.53;;
38513;SDS011;24282;48.400;10.808;2023-11-22T01:40:46;2.97;;;2.10;;
38513;SDS011;24282;48.400;10.808;2023-11-22T01:43:22;3.20;;;2.83;;
38513;SDS011;24282;48.400;10.808;2023-11-22T01:45:52;4.20;;;2.67;;
38513;SDS011;24282;48.400;10.808;2023-11-22T01:48:19;3.83;;;2.80;;
38513;SDS011;24282;48.400;10.808;2023-11-22T01:50:46;3.10;;;2.50;;
38513;SDS011;24282;48.400;10.808;2023-11-22T01:53:13;3.30;;;2.57;;
38513;SDS011;24282;48.400;10.808;2023-11-22T01:55:41;3.83;;;2.97;;
38513;SDS011;24282;48.400;10.808;2023-11-22T01:58:09;3.90;;;2.70;;
38513;SDS011;24282;48.400;10.808;2023-11-22T02:00:36;4.37;;;3.30;;
38513;SDS011;24282;48.400;10.808;2023-11-22T02:03:14;4.30;;;3.40;;
38513;SDS011;24282;48.400;10.808;2023-11-22T02:05:40;5.20;;;4.40;;
38513;SDS011;24282;48.400;10.808;2023-11-22T02:08:08;5.10;;;4.23;;
38513;SDS011;24282;48.400;10.808;2023-11-22T02:10:36;5.17;;;4.67;;
38513;SDS011;24282;48.400;10.808;2023-11-22T02:13:02;5.40;;;4.60;;
38513;SDS011;24282;48.400;10.808;2023-11-22T02:15:39;5.47;;;4.53;;
38513;SDS011;24282;48.400;10.808;2023-11-22T02:18:04;5.77;;;4.93;;
38513;SDS011;24282;48.400;10.808;2023-11-22T02:20:34;6.07;;;4.20;;
38513;SDS011;24282;48.400;10.808;2023-11-22T02:23:07;5.30;;;4.23;;
38513;SDS011;24282;48.400;10.808;2023-11-22T02:25:36;5.77;;;4.40;;
38513;SDS011;24282;48.400;10.808;2023-11-22T02:28:02;6.37;;;4.50;;
38513;SDS011;24282;48.400;10.808;2023-11-22T02:30:28;5.43;;;4.80;;
38513;SDS011;24282;48.400;10.808;2023-11-22T02:32:54;5.17;;;4.57;;
38513;SDS011;24282;48.400;10.808;2023-11-22T02:35:20;5.47;;;4.87;;
38513;SDS011;24282;48.400;10.808;2023-11-22T02:37:46;5.03;;;4.30;;
38513;SDS011;24282;48.400;10.808;2023-11-22T02:40:17;4.50;;;3.60;;
38513;SDS011;24282;48.400;10.808;2023-11-22T02:42:47;5.10;;;4.07;;
38513;SDS011;24282;48.400;10.808;2023-11-22T02:45:17;4.50;;;3.83;;
38513;SDS011;24282;48.400;10.808;2023-11-22T02:47:44;4.07;;;3.53;;
38513;SDS011;24282;48.400;10.808;2023-11-22T02:50:12;4.43;;;3.40;;
38513;SDS011;24282;48.400;10.808;2023-11-22T02:52:39;3.87;;;3.30;;
38513;SDS011;24282;48.400;10.808;2023-11-22T02:55:05;3.70;;;3.10;;
38513;SDS011;24282;48.400;10.808;2023-11-22T02:57:31;4.87;;;3.40;;
38513;SDS011;24282;48.400;10.808;2023-11-22T02:59:57;4.80;;;3.77;;
38513;SDS011;24282;48.400;10.808;2023-11-22T03:02:23;4.60;;;3.60;;
38513;SDS011;24282;48.400;10.808;2023-11-22T03:04:49;4.20;;;3.20;;
38513;SDS011;24282;48.400;10.808;2023-11-22T03:07:15;4.67;;;3.50;;
38513;SDS011;24282;48.400;10.808;2023-11-22T03:09:42;3.97;;;3.30;;
38513;SDS011;24282;48.400;10.808;2023-11-22T03:12:10;4.10;;;3.17;;
38513;SDS011;24282;48.400;10.808;2023-11-22T03:14:38;3.90;;;3.30;;
38513;SDS011;24282;48.400;10.808;2023-11-22T03:17:04;3.83;;;3.27;;
38513;SDS011;24282;48.400;10.808;2023-11-22T03:19:31;3.80;;;3.40;;
38513;SDS011;24282;48.400;10.808;2023-11-22T03:21:59;4.27;;;3.87;;
38513;SDS011;24282;48.400;10.808;2023-11-22T03:24:28;4.87;;;3.97;;
38513;SDS011;24282;48.400;10.808;2023-11-22T03:26:57;5.63;;;4.10;;
38513;SDS011;24282;48.400;10.808;2023-11-22T03:29:24;8.87;;;4.90;;
38513;SDS011;24282;48.400;10.808;2023-11-22T03:31:50;5.33;;;4.10;;
38513;SDS011;24282;48.400;10.808;2023-11-22T03:34:16;5.10;;;4.60;;
38513;SDS011;24282;48.400;10.808;2023-11-22T03:36:44;5.73;;;4.87;;
38513;SDS011;24282;48.400;10.808;2023-11-22T03:39:09;7.00;;;5.33;;
38513;SDS011;24282;48.400;10.808;2023-11-22T03:41:35;5.27;;;4.53;;
38513;SDS011;24282;48.400;10.808;2023-11-22T03:44:02;5.87;;;5.27;;
38513;SDS011;24282;48.400;10.808;2023-11-22T03:46:29;4.97;;;4.37;;
38513;SDS011;24282;48.400;10.808;2023-11-22T03:48:55;5.07;;;4.33;;
38513;SDS011;24282;48.400;10.808;2023-11-22T03:51:21;5.73;;;4.37;;
38513;SDS011;24282;48.400;10.808;2023-11-22T03:53:47;5.87;;;5.23;;
38513;SDS011;24282;48.400;10.808;2023-11-22T03:56:12;6.57;;;5.20;;
38513;SDS011;24282;48.400;10.808;2023-11-22T03:58:39;6.23;;;4.57;;
38513;SDS011;24282;48.400;10.808;2023-11-22T04:01:05;5.27;;;4.30;;
38513;SDS011;24282;48.400;10.808;2023-11-22T04:03:31;5.57;;;4.60;;
38513;SDS011;24282;48.400;10.808;2023-11-22T04:05:57;6.07;;;4.90;;
38513;SDS011;24282;48.400;10.808;2023-11-22T04:08:23;6.53;;;5.23;;
38513;SDS011;24282;48.400;10.808;2023-11-22T04:10:49;6.30;;;5.23;;
38513;SDS011;24282;48.400;10.808;2023-11-22T04:13:15;6.70;;;5.43;;
38513;SDS011;24282;48.400;10.808;2023-11-22T04:15:41;9.00;;;5.80;;
38513;SDS011;24282;48.400;10.808;2023-11-22T04:18:07;7.30;;;5.27;;
38513;SDS011;24282;48.400;10.808;2023-11-22T04:20:32;6.30;;;5.27;;
38513;SDS011;24282;48.400;10.808;2023-11-22T04:22:58;7.30;;;6.03;;
38513;SDS011;24282;48.400;10.808;2023-11-22T04:25:24;6.83;;;5.73;;
38513;SDS011;24282;48.400;10.808;2023-11-22T04:27:49;6.13;;;5.20;;
38513;SDS011;24282;48.400;10.808;2023-11-22T04:30:15;5.90;;;5.20;;
38513;SDS011;24282;48.400;10.808;2023-11-22T04:32:42;7.00;;;5.70;;
38513;SDS011;24282;48.400;10.808;2023-11-22T04:35:09;8.20;;;5.73;;
38513;SDS011;24282;48.400;10.808;2023-11-22T04:37:35;6.97;;;5.40;;
38513;SDS011;24282;48.400;10.808;2023-11-22T04:40:02;6.47;;;5.17;;
38513;SDS011;24282;48.400;10.808;2023-11-22T04:42:30;5.80;;;5.13;;
38513;SDS011;24282;48.400;10.808;2023-11-22T04:44:56;6.37;;;5.70;;
38513;SDS011;24282;48.400;10.808;2023-11-22T04:47:21;6.60;;;5.73;;
38513;SDS011;24282;48.400;10.808;2023-11-22T04:49:47;6.50;;;5.57;;
38513;SDS011;24282;48.400;10.808;2023-11-22T04:52:13;6.90;;;6.13;;
38513;SDS011;24282;48.400;10.808;2023-11-22T04:54:40;6.40;;;5.27;;
38513;SDS011;24282;48.400;10.808;2023-11-22T04:57:07;6.77;;;5.73;;
38513;SDS011;24282;48.400;10.808;2023-11-22T04:59:32;7.63;;;5.63;;
38513;SDS011;24282;48.400;10.808;2023-11-22T05:01:58;6.57;;;5.20;;
38513;SDS011;24282;48.400;10.808;2023-11-22T05:04:24;7.83;;;5.63;;
38513;SDS011;24282;48.400;10.808;2023-11-22T05:06:51;6.20;;;5.00;;
38513;SDS011;24282;48.400;10.808;2023-11-22T05:09:18;6.53;;;5.07;;
38513;SDS011;24282;48.400;10.808;2023-11-22T05:11:45;6.70;;;5.63;;
38513;SDS011;24282;48.400;10.808;2023-11-22T05:14:11;6.93;;;5.37;;
38513;SDS011;24282;48.400;10.808;2023-11-22T05:16:38;6.63;;;5.43;;
38513;SDS011;24282;48.400;10.808;2023-11-22T05:19:04;6.20;;;5.27;;
38513;SDS011;24282;48.400;10.808;2023-11-22T05:21:30;8.27;;;5.37;;
38513;SDS011;24282;48.400;10.808;2023-11-22T05:23:57;6.40;;;5.50;;
38513;SDS011;24282;48.400;10.808;2023-11-22T05:26:24;6.03;;;5.40;;
38513;SDS011;24282;48.400;10.808;2023-11-22T05:28:50;6.17;;;5.10;;
38513;SDS011;24282;48.400;10.808;2023-11-22T05:31:15;6.50;;;4.70;;
38513;SDS011;24282;48.400;10.808;2023-11-22T05:33:41;5.83;;;5.13;;
38513;SDS011;24282;48.400;10.808;2023-11-22T05:36:07;6.30;;;4.77;;
38513;SDS011;24282;48.400;10.808;2023-11-22T05:38:36;6.93;;;5.87;;
38513;SDS011;24282;48.400;10.808;2023-11-22T05:41:03;6.00;;;5.40;;
38513;SDS011;24282;48.400;10.808;2023-11-22T05:43:29;6.47;;;5.07;;
38513;SDS011;24282;48.400;10.808;2023-11-22T05:45:55;5.97;;;5.30;;
38513;SDS011;24282;48.400;10.808;2023-11-22T05:48:21;7.60;;;6.27;;
38513;SDS011;24282;48.400;10.808;2023-11-22T05:50:47;6.33;;;5.20;;
38513;SDS011;24282;48.400;10.808;2023-11-22T05:53:13;6.40;;;5.40;;
38513;SDS011;24282;48.400;10.808;2023-11-22T05:55:47;6.60;;;5.40;;
38513;SDS011;24282;48.400;10.808;2023-11-22T05:58:14;6.13;;;5.10;;
38513;SDS011;24282;48.400;10.808;2023-11-22T06:00:43;6.63;;;5.80;;
38513;SDS011;24282;48.400;10.808;2023-11-22T06:03:12;6.67;;;5.40;;
38513;SDS011;24282;48.400;10.808;2023-11-22T06:05:39;6.33;;;5.13;;
38513;SDS011;24282;48.400;10.808;2023-11-22T06:08:05;7.60;;;5.30;;
38513;SDS011;24282;48.400;10.808;2023-11-22T06:10:31;7.37;;;5.17;;
38513;SDS011;24282;48.400;10.808;2023-11-22T06:12:57;6.57;;;5.03;;
38513;SDS011;24282;48.400;10.808;2023-11-22T06:15:22;5.90;;;4.50;;
38513;SDS011;24282;48.400;10.808;2023-11-22T06:17:48;6.77;;;4.90;;
38513;SDS011;24282;48.400;10.808;2023-11-22T06:20:15;7.13;;;4.77;;
38513;SDS011;24282;48.400;10.808;2023-11-22T06:22:41;5.93;;;5.03;;
38513;SDS011;24282;48.400;10.808;2023-11-22T06:25:10;5.87;;;4.90;;
38513;SDS011;24282;48.400;10.808;2023-11-22T06:27:37;6.10;;;4.80;;
38513;SDS011;24282;48.400;10.808;2023-11-22T06:30:03;5.20;;;4.10;;
38513;SDS011;24282;48.400;10.808;2023-11-22T06:32:31;5.50;;;4.40;;
38513;SDS011;24282;48.400;10.808;2023-11-22T06:34:57;5.27;;;4.23;;
38513;SDS011;24282;48.400;10.808;2023-11-22T06:37:23;5.53;;;4.57;;
38513;SDS011;24282;48.400;10.808;2023-11-22T06:39:48;5.23;;;4.23;;
38513;SDS011;24282;48.400;10.808;2023-11-22T06:42:16;6.73;;;4.70;;
38513;SDS011;24282;48.400;10.808;2023-11-22T06:44:41;5.83;;;4.50;;
38513;SDS011;24282;48.400;10.808;2023-11-22T06:47:08;4.90;;;3.90;;
38513;SDS011;24282;48.400;10.808;2023-11-22T06:49:34;5.90;;;4.30;;
38513;SDS011;24282;48.400;10.808;2023-11-22T06:52:00;5.80;;;5.03;;
38513;SDS011;24282;48.400;10.808;2023-11-22T06:54:25;7.90;;;5.17;;
38513;SDS011;24282;48.400;10.808;2023-11-22T06:56:51;6.07;;;4.97;;
38513;SDS011;24282;48.400;10.808;2023-11-22T06:59:18;7.33;;;5.03;;
38513;SDS011;24282;48.400;10.808;2023-11-22T07:01:44;5.70;;;4.63;;
38513;SDS011;24282;48.400;10.808;2023-11-22T07:04:10;5.60;;;4.43;;
38513;SDS011;24282;48.400;10.808;2023-11-22T07:06:36;4.87;;;3.77;;
38513;SDS011;24282;48.400;10.808;2023-11-22T07:09:06;6.00;;;4.80;;
38513;SDS011;24282;48.400;10.808;2023-11-22T07:11:34;6.43;;;5.27;;
38513;SDS011;24282;48.400;10.808;2023-11-22T07:14:02;5.03;;;4.20;;
38513;SDS011;24282;48.400;10.808;2023-11-22T07:16:29;4.73;;;4.17;;
38513;SDS011;24282;48.400;10.808;2023-11-22T07:18:56;5.40;;;4.10;;
38513;SDS011;24282;48.400;10.808;2023-11-22T07:21:22;5.30;;;4.23;;
38513;SDS011;24282;48.400;10.808;2023-11-22T07:23:48;6.33;;;5.33;;
38513;SDS011;24282;48.400;10.808;2023-11-22T07:26:13;6.17;;;4.13;;
38513;SDS011;24282;48.400;10.808;2023-11-22T07:28:40;5.70;;;4.70;;
38513;SDS011;24282;48.400;10.808;2023-11-22T07:31:06;5.30;;;4.43;;
38513;SDS011;24282;48.400;10.808;2023-11-22T07:33:33;4.77;;;3.87;;
38513;SDS011;24282;48.400;10.808;2023-11-22T07:35:58;4.70;;;3.77;;
38513;SDS011;24282;48.400;10.808;2023-11-22T07:38:24;5.00;;;3.63;;
38513;SDS011;24282;48.400;10.808;2023-11-22T07:40:50;4.07;;;3.50;;
38513;SDS011;24282;48.400;10.808;2023-11-22T07:43:16;5.93;;;4.33;;
38513;SDS011;24282;48.400;10.808;2023-11-22T07:45:43;5.60;;;3.40;;
38513;SDS011;24282;48.400;10.808;2023-11-22T07:48:10;5.07;;;3.83;;
38513;SDS011;24282;48.400;10.808;2023-11-22T07:50:39;6.33;;;3.70;;
38513;SDS011;24282;48.400;10.808;2023-11-22T07:53:09;4.95;;;3.88;;
38513;SDS011;24282;48.400;10.808;2023-11-22T07:55:37;4.77;;;3.63;;
38513;SDS011;24282;48.400;10.808;2023-11-22T07:58:03;5.10;;;4.20;;
38513;SDS011;24282;48.400;10.808;2023-11-22T08:00:32;5.43;;;3.80;;
38513;SDS011;24282;48.400;10.808;2023-11-22T08:02:59;3.93;;;3.30;;
38513;SDS011;24282;48.400;10.808;2023-11-22T08:05:31;4.43;;;3.80;;
38513;SDS011;24282;48.400;10.808;2023-11-22T08:08:04;5.82;;;3.72;;
38513;SDS011;24282;48.400;10.808;2023-11-22T08:10:33;4.13;;;3.33;;
38513;SDS011;24282;48.400;10.808;2023-11-22T08:13:00;6.20;;;3.60;;
38513;SDS011;24282;48.400;10.808;2023-11-22T08:15:27;4.33;;;3.43;;
38513;SDS011;24282;48.400;10.808;2023-11-22T08:17:53;4.73;;;3.33;;
38513;SDS011;24282;48.400;10.808;2023-11-22T08:20:19;6.83;;;3.70;;
38513;SDS011;24282;48.400;10.808;2023-11-22T08:22:45;3.97;;;2.87;;
38513;SDS011;24282;48.400;10.808;2023-11-22T08:25:12;4.03;;;3.23;;
38513;SDS011;24282;48.400;10.808;2023-11-22T08:27:38;4.37;;;3.20;;
38513;SDS011;24282;48.400;10.808;2023-11-22T08:30:08;4.17;;;3.13;;
38513;SDS011;24282;48.400;10.808;2023-11-22T08:32:44;3.70;;;3.05;;
38513;SDS011;24282;48.400;10.808;2023-11-22T08:35:16;4.50;;;3.50;;
38513;SDS011;24282;48.400;10.808;2023-11-22T08:37:42;3.87;;;2.93;;
38513;SDS011;24282;48.400;10.808;2023-11-22T08:40:08;7.10;;;3.20;;
38513;SDS011;24282;48.400;10.808;2023-11-22T08:42:39;4.53;;;3.40;;
38513;SDS011;24282;48.400;10.808;2023-11-22T08:45:06;3.93;;;3.30;;
38513;SDS011;24282;48.400;10.808;2023-11-22T08:47:33;3.57;;;2.93;;
38513;SDS011;24282;48.400;10.808;2023-11-22T08:49:59;4.07;;;3.27;;
38513;SDS011;24282;48.400;10.808;2023-11-22T08:52:28;3.73;;;3.13;;
38513;SDS011;24282;48.400;10.808;2023-11-22T08:54:56;3.40;;;2.80;;
38513;SDS011;24282;48.400;10.808;2023-11-22T08:57:21;3.57;;;2.87;;
38513;SDS011;24282;48.400;10.808;2023-11-22T08:59:47;3.30;;;2.60;;
38513;SDS011;24282;48.400;10.808;2023-11-22T09:02:14;3.40;;;2.87;;
38513;SDS011;24282;48.400;10.808;2023-11-22T09:04:40;3.57;;;2.80;;
38513;SDS011;24282;48.400;10.808;2023-11-22T09:07:07;4.67;;;3.40;;
38513;SDS011;24282;48.400;10.808;2023-11-22T09:09:35;3.97;;;2.97;;
38513;SDS011;24282;48.400;10.808;2023-11-22T09:12:01;4.00;;;3.20;;
38513;SDS011;24282;48.400;10.808;2023-11-22T09:14:27;4.30;;;3.07;;
38513;SDS011;24282;48.400;10.808;2023-11-22T09:16:53;4.13;;;3.27;;
38513;SDS011;24282;48.400;10.808;2023-11-22T09:19:22;3.70;;;2.93;;
38513;SDS011;24282;48.400;10.808;2023-11-22T09:21:50;3.83;;;3.33;;
38513;SDS011;24282;48.400;10.808;2023-11-22T09:24:16;5.07;;;3.50;;
38513;SDS011;24282;48.400;10.808;2023-11-22T09:26:42;4.20;;;3.00;;
38513;SDS011;24282;48.400;10.808;2023-11-22T09:29:08;4.47;;;3.37;;
38513;SDS011;24282;48.400;10.808;2023-11-22T09:31:39;3.70;;;3.10;;
38513;SDS011;24282;48.400;10.808;2023-11-22T09:34:07;4.30;;;3.40;;
38513;SDS011;24282;48.400;10.808;2023-11-22T09:36:34;4.10;;;3.07;;
38513;SDS011;24282;48.400;10.808;2023-11-22T09:39:00;3.93;;;3.10;;
38513;SDS011;24282;48.400;10.808;2023-11-22T09:41:28;4.23;;;3.27;;
38513;SDS011;24282;48.400;10.808;2023-11-22T09:43:54;5.23;;;3.77;;
38513;SDS011;24282;48.400;10.808;2023-11-22T09:46:22;4.50;;;3.40;;
38513;SDS011;24282;48.400;10.808;2023-11-22T09:48:49;4.83;;;3.83;;
38513;SDS011;24282;48.400;10.808;2023-11-22T09:53:52;4.63;;;3.57;;
38513;SDS011;24282;48.400;10.808;2023-11-22T09:56:29;4.90;;;3.67;;
38513;SDS011;24282;48.400;10.808;2023-11-22T09:58:57;4.63;;;3.97;;
38513;SDS011;24282;48.400;10.808;2023-11-22T10:01:28;4.73;;;4.00;;
38513;SDS011;24282;48.400;10.808;2023-11-22T10:03:56;4.00;;;3.07;;
38513;SDS011;24282;48.400;10.808;2023-11-22T10:06:23;4.40;;;3.43;;
38513;SDS011;24282;48.400;10.808;2023-11-22T10:08:49;8.00;;;3.93;;
38513;SDS011;24282;48.400;10.808;2023-11-22T10:11:16;5.37;;;4.13;;
38513;SDS011;24282;48.400;10.808;2023-11-22T10:13:50;5.67;;;4.27;;
38513;SDS011;24282;48.400;10.808;2023-11-22T10:16:17;5.57;;;4.43;;
38513;SDS011;24282;48.400;10.808;2023-11-22T10:18:48;5.43;;;4.43;;
38513;SDS011;24282;48.400;10.808;2023-11-22T10:23:46;7.17;;;5.93;;
38513;SDS011;24282;48.400;10.808;2023-11-22T10:26:17;5.97;;;4.83;;
38513;SDS011;24282;48.400;10.808;2023-11-22T10:28:43;5.03;;;4.23;;
38513;SDS011;24282;48.400;10.808;2023-11-22T10:31:09;4.87;;;3.90;;
38513;SDS011;24282;48.400;10.808;2023-11-22T10:33:39;4.77;;;3.97;;
38513;SDS011;24282;48.400;10.808;2023-11-22T10:36:07;4.63;;;3.60;;
38513;SDS011;24282;48.400;10.808;2023-11-22T10:38:33;5.33;;;4.00;;
38513;SDS011;24282;48.400;10.808;2023-11-22T10:40:59;5.87;;;3.43;;
38513;SDS011;24282;48.400;10.808;2023-11-22T10:43:29;5.17;;;3.97;;
38513;SDS011;24282;48.400;10.808;2023-11-22T10:45:57;4.57;;;3.47;;
38513;SDS011;24282;48.400;10.808;2023-11-22T10:48:24;4.33;;;3.57;;
38513;SDS011;24282;48.400;10.808;2023-11-22T10:50:50;4.10;;;3.57;;
38513;SDS011;24282;48.400;10.808;2023-11-22T10:53:20;4.53;;;3.73;;
38513;SDS011;24282;48.400;10.808;2023-11-22T10:55:51;4.13;;;3.13;;
38513;SDS011;24282;48.400;10.808;2023-11-22T10:58:22;4.33;;;3.60;;
38513;SDS011;24282;48.400;10.808;2023-11-22T11:00:50;5.10;;;3.80;;
38513;SDS011;24282;48.400;10.808;2023-11-22T11:03:20;5.87;;;3.37;;
38513;SDS011;24282;48.400;10.808;2023-11-22T11:05:50;4.80;;;3.73;;
38513;SDS011;24282;48.400;10.808;2023-11-22T11:08:19;4.63;;;3.78;;
38513;SDS011;24282;48.400;10.808;2023-11-22T11:10:47;4.67;;;3.33;;
38513;SDS011;24282;48.400;10.808;2023-11-22T11:13:14;4.83;;;3.70;;
38513;SDS011;24282;48.400;10.808;2023-11-22T11:15:40;4.20;;;3.43;;
38513;SDS011;24282;48.400;10.808;2023-11-22T11:18:14;4.90;;;3.60;;
38513;SDS011;24282;48.400;10.808;2023-11-22T11:20:56;4.63;;;3.57;;
38513;SDS011;24282;48.400;10.808;2023-11-22T11:23:27;4.83;;;3.73;;
38513;SDS011;24282;48.400;10.808;2023-11-22T11:25:54;5.47;;;3.70;;
38513;SDS011;24282;48.400;10.808;2023-11-22T11:28:22;4.80;;;3.53;;
38513;SDS011;24282;48.400;10.808;2023-11-22T11:30:51;4.97;;;4.00;;
38513;SDS011;24282;48.400;10.808;2023-11-22T11:33:19;4.67;;;3.27;;
38513;SDS011;24282;48.400;10.808;2023-11-22T11:35:49;6.00;;;4.30;;
38513;SDS011;24282;48.400;10.808;2023-11-22T11:38:16;5.53;;;4.13;;
38513;SDS011;24282;48.400;10.808;2023-11-22T11:40:48;8.50;;;5.50;;
38513;SDS011;24282;48.400;10.808;2023-11-22T11:43:15;5.60;;;4.70;;
38513;SDS011;24282;48.400;10.808;2023-11-22T11:45:45;5.23;;;3.80;;
38513;SDS011;24282;48.400;10.808;2023-11-22T11:48:15;5.90;;;4.67;;
38513;SDS011;24282;48.400;10.808;2023-11-22T11:50:41;5.07;;;3.83;;
38513;SDS011;24282;48.400;10.808;2023-11-22T11:53:08;5.50;;;4.43;;
38513;SDS011;24282;48.400;10.808;2023-11-22T11:55:36;6.80;;;4.60;;
38513;SDS011;24282;48.400;10.808;2023-11-22T11:58:04;6.07;;;4.40;;
38513;SDS011;24282;48.400;10.808;2023-11-22T12:00:32;5.87;;;4.77;;
38513;SDS011;24282;48.400;10.808;2023-11-22T12:02:58;6.97;;;4.03;;
38513;SDS011;24282;48.400;10.808;2023-11-22T12:05:24;6.70;;;5.13;;
38513;SDS011;24282;48.400;10.808;2023-11-22T12:07:50;5.80;;;4.60;;
38513;SDS011;24282;48.400;10.808;2023-11-22T12:10:16;6.23;;;5.23;;
38513;SDS011;24282;48.400;10.808;2023-11-22T12:12:42;6.30;;;4.73;;
38513;SDS011;24282;48.400;10.808;2023-11-22T12:15:09;5.13;;;3.77;;
38513;SDS011;24282;48.400;10.808;2023-11-22T12:17:36;6.87;;;4.70;;
38513;SDS011;24282;48.400;10.808;2023-11-22T12:20:14;5.43;;;4.20;;
38513;SDS011;24282;48.400;10.808;2023-11-22T12:22:43;6.07;;;3.63;;
38513;SDS011;24282;48.400;10.808;2023-11-22T12:25:10;6.07;;;4.07;;
38513;SDS011;24282;48.400;10.808;2023-11-22T12:27:44;5.27;;;4.20;;
38513;SDS011;24282;48.400;10.808;2023-11-22T12:32:54;7.60;;;4.43;;
38513;SDS011;24282;48.400;10.808;2023-11-22T12:35:21;5.93;;;4.13;;
38513;SDS011;24282;48.400;10.808;2023-11-22T12:37:48;6.30;;;4.70;;
38513;SDS011;24282;48.400;10.808;2023-11-22T12:40:14;4.93;;;3.97;;
38513;SDS011;24282;48.400;10.808;2023-11-22T12:42:51;5.33;;;4.47;;
38513;SDS011;24282;48.400;10.808;2023-11-22T12:45:27;5.63;;;3.97;;
38513;SDS011;24282;48.400;10.808;2023-11-22T12:47:54;4.43;;;3.63;;
38513;SDS011;24282;48.400;10.808;2023-11-22T12:50:37;5.30;;;4.37;;
38513;SDS011;24282;48.400;10.808;2023-11-22T12:53:10;6.30;;;4.30;;
38513;SDS011;24282;48.400;10.808;2023-11-22T12:55:37;6.40;;;4.10;;
38513;SDS011;24282;48.400;10.808;2023-11-22T12:58:07;6.07;;;4.27;;
38513;SDS011;24282;48.400;10.808;2023-11-22T13:00:33;6.57;;;4.60;;
38513;SDS011;24282;48.400;10.808;2023-11-22T13:02:59;5.33;;;4.03;;
38513;SDS011;24282;48.400;10.808;2023-11-22T13:05:24;5.77;;;4.60;;
38513;SDS011;24282;48.400;10.808;2023-11-22T13:07:51;5.43;;;4.47;;
38513;SDS011;24282;48.400;10.808;2023-11-22T13:10:17;5.77;;;4.53;;
38513;SDS011;24282;48.400;10.808;2023-11-22T13:12:44;6.50;;;4.80;;
38513;SDS011;24282;48.400;10.808;2023-11-22T13:15:11;5.77;;;4.23;;
38513;SDS011;24282;48.400;10.808;2023-11-22T13:17:38;5.90;;;4.73;;
38513;SDS011;24282;48.400;10.808;2023-11-22T13:20:07;7.70;;;5.13;;
38513;SDS011;24282;48.400;10.808;2023-11-22T13:22:43;5.03;;;4.00;;
38513;SDS011;24282;48.400;10.808;2023-11-22T13:25:10;8.70;;;5.53;;
38513;SDS011;24282;48.400;10.808;2023-11-22T13:27:36;6.17;;;4.87;;
38513;SDS011;24282;48.400;10.808;2023-11-22T13:30:02;7.90;;;5.73;;
38513;SDS011;24282;48.400;10.808;2023-11-22T13:32:30;9.40;;;4.90;;
38513;SDS011;24282;48.400;10.808;2023-11-22T13:34:56;6.20;;;4.37;;
38513;SDS011;24282;48.400;10.808;2023-11-22T13:37:22;5.03;;;4.33;;
38513;SDS011;24282;48.400;10.808;2023-11-22T13:39:54;5.30;;;4.60;;
38513;SDS011;24282;48.400;10.808;2023-11-22T13:42:20;5.80;;;4.70;;
38513;SDS011;24282;48.400;10.808;2023-11-22T13:44:46;5.03;;;3.87;;
38513;SDS011;24282;48.400;10.808;2023-11-22T13:47:12;5.60;;;4.67;;
38513;SDS011;24282;48.400;10.808;2023-11-22T13:49:41;5.40;;;4.33;;
38513;SDS011;24282;48.400;10.808;2023-11-22T13:52:08;6.07;;;4.50;;
38513;SDS011;24282;48.400;10.808;2023-11-22T13:54:34;4.97;;;4.30;;
38513;SDS011;24282;48.400;10.808;2023-11-22T13:57:04;6.03;;;4.93;;
38513;SDS011;24282;48.400;10.808;2023-11-22T13:59:30;6.07;;;5.03;;
38513;SDS011;24282;48.400;10.808;2023-11-22T14:01:55;5.83;;;4.50;;
38513;SDS011;24282;48.400;10.808;2023-11-22T14:04:21;5.27;;;4.57;;
38513;SDS011;24282;48.400;10.808;2023-11-22T14:06:48;5.17;;;4.10;;
38513;SDS011;24282;48.400;10.808;2023-11-22T14:09:13;6.00;;;4.43;;
38513;SDS011;24282;48.400;10.808;2023-11-22T14:11:40;5.70;;;4.13;;
38513;SDS011;24282;48.400;10.808;2023-11-22T14:14:05;10.47;;;6.20;;
38513;SDS011;24282;48.400;10.808;2023-11-22T14:16:34;6.50;;;5.30;;
38513;SDS011;24282;48.400;10.808;2023-11-22T14:19:00;6.23;;;5.07;;
38513;SDS011;24282;48.400;10.808;2023-11-22T14:21:26;5.80;;;4.43;;
38513;SDS011;24282;48.400;10.808;2023-11-22T14:23:51;6.40;;;3.87;;
38513;SDS011;24282;48.400;10.808;2023-11-22T14:26:18;4.93;;;4.13;;
38513;SDS011;24282;48.400;10.808;2023-11-22T14:28:44;5.97;;;4.53;;
38513;SDS011;24282;48.400;10.808;2023-11-22T14:31:09;5.13;;;4.37;;
38513;SDS011;24282;48.400;10.808;2023-11-22T14:33:35;6.43;;;4.43;;
38513;SDS011;24282;48.400;10.808;2023-11-22T14:36:01;6.70;;;4.73;;
38513;SDS011;24282;48.400;10.808;2023-11-22T14:38:27;6.13;;;4.57;;
38513;SDS011;24282;48.400;10.808;2023-11-22T14:40:53;5.93;;;4.30;;